sensor_id;sensor_type;location;lat;lon;timestamp;P1;durP1;ratioP1;P2;durP2;ratioP2
42144;SDS011;27813;43.516;11.890;2023-10-19T00:01:35;15.63;;;8.10;;
42144;SDS011;27813;43.516;11.890;2023-10-19T00:05:41;12.15;;;7.20;;
42144;SDS011;27813;43.516;11.890;2023-10-19T00:09:45;15.27;;;8.55;;
42144;SDS011;27813;43.516;11.890;2023-10-19T00:13:51;11.02;;;7.30;;
42144;SDS011;27813;43.516;11.890;2023-10-19T00:18:01;13.63;;;7.30;;
42144;SDS011;27813;43.516;11.890;2023-10-19T00:22:23;11.32;;;6.95;;
42144;SDS011;27813;43.516;11.890;2023-10-19T00:26:27;10.13;;;5.63;;
42144;SDS011;27813;43.516;11.890;2023-10-19T00:30:36;10.45;;;5.80;;
42144;SDS011;27813;43.516;11.890;2023-10-19T00:34:40;10.77;;;5.68;;
42144;SDS011;27813;43.516;11.890;2023-10-19T00:38:53;8.48;;;6.22;;
42144;SDS011;27813;43.516;11.890;2023-10-19T00:43:25;11.15;;;5.80;;
42144;SDS011;27813;43.516;11.890;2023-10-19T00:47:32;8.45;;;5.80;;
42144;SDS011;27813;43.516;11.890;2023-10-19T00:51:56;10.27;;;6.55;;
42144;SDS011;27813;43.516;11.890;2023-10-19T00:56:15;12.70;;;7.88;;
42144;SDS011;27813;43.516;11.890;2023-10-19T01:00:23;9.95;;;6.60;;
42144;SDS011;27813;43.516;11.890;2023-10-19T01:04:35;10.07;;;6.22;;
42144;SDS011;27813;43.516;11.890;2023-10-19T01:08:43;10.68;;;7.05;;
42144;SDS011;27813;43.516;11.890;2023-10-19T01:12:50;10.50;;;6.40;;
42144;SDS011;27813;43.516;11.890;2023-10-19T01:16:55;10.07;;;7.28;;
42144;SDS011;27813;43.516;11.890;2023-10-19T01:21:02;10.70;;;6.82;;
42144;SDS011;27813;43.516;11.890;2023-10-19T01:25:09;11.35;;;6.97;;
42144;SDS011;27813;43.516;11.890;2023-10-19T01:29:14;17.73;;;7.25;;
42144;SDS011;27813;43.516;11.890;2023-10-19T01:33:21;9.18;;;6.88;;
42144;SDS011;27813;43.516;11.890;2023-10-19T01:37:27;11.82;;;6.65;;
42144;SDS011;27813;43.516;11.890;2023-10-19T01:41:31;8.70;;;6.30;;
42144;SDS011;27813;43.516;11.890;2023-10-19T01:45:36;9.48;;;6.50;;
42144;SDS011;27813;43.516;11.890;2023-10-19T01:49:40;10.35;;;6.63;;
42144;SDS011;27813;43.516;11.890;2023-10-19T01:53:44;9.93;;;6.65;;
42144;SDS011;27813;43.516;11.890;2023-10-19T01:57:48;9.90;;;6.60;;
42144;SDS011;27813;43.516;11.890;2023-10-19T02:05:59;7.45;;;5.78;;
42144;SDS011;27813;43.516;11.890;2023-10-19T02:10:10;10.88;;;6.10;;
42144;SDS011;27813;43.516;11.890;2023-10-19T02:14:15;7.70;;;5.15;;
42144;SDS011;27813;43.516;11.890;2023-10-19T02:18:24;9.38;;;5.07;;
42144;SDS011;27813;43.516;11.890;2023-10-19T02:22:28;7.28;;;4.97;;
42144;SDS011;27813;43.516;11.890;2023-10-19T02:26:32;8.70;;;4.70;;
42144;SDS011;27813;43.516;11.890;2023-10-19T02:30:38;9.55;;;5.30;;
42144;SDS011;27813;43.516;11.890;2023-10-19T02:34:45;8.05;;;4.20;;
42144;SDS011;27813;43.516;11.890;2023-10-19T02:38:50;6.63;;;4.25;;
42144;SDS011;27813;43.516;11.890;2023-10-19T02:42:55;4.63;;;3.67;;
42144;SDS011;27813;43.516;11.890;2023-10-19T02:46:59;9.13;;;4.55;;
42144;SDS011;27813;43.516;11.890;2023-10-19T02:51:11;13.73;;;4.47;;
42144;SDS011;27813;43.516;11.890;2023-10-19T02:55:15;5.90;;;3.72;;
42144;SDS011;27813;43.516;11.890;2023-10-19T02:59:29;7.60;;;3.88;;
42144;SDS011;27813;43.516;11.890;2023-10-19T03:08:30;9.65;;;4.45;;
42144;SDS011;27813;43.516;11.890;2023-10-19T03:12:35;8.13;;;4.45;;
42144;SDS011;27813;43.516;11.890;2023-10-19T03:16:40;8.23;;;4.25;;
42144;SDS011;27813;43.516;11.890;2023-10-19T03:20:48;7.05;;;4.18;;
42144;SDS011;27813;43.516;11.890;2023-10-19T03:24:54;7.50;;;4.78;;
42144;SDS011;27813;43.516;11.890;2023-10-19T03:29:23;10.38;;;5.07;;
42144;SDS011;27813;43.516;11.890;2023-10-19T03:33:49;9.15;;;5.18;;
42144;SDS011;27813;43.516;11.890;2023-10-19T03:37:57;13.13;;;6.07;;
42144;SDS011;27813;43.516;11.890;2023-10-19T03:42:04;11.35;;;6.53;;
42144;SDS011;27813;43.516;11.890;2023-10-19T03:46:15;9.90;;;5.07;;
42144;SDS011;27813;43.516;11.890;2023-10-19T03:50:30;9.20;;;5.80;;
42144;SDS011;27813;43.516;11.890;2023-10-19T03:54:38;11.20;;;5.82;;
42144;SDS011;27813;43.516;11.890;2023-10-19T03:58:43;9.70;;;6.00;;
42144;SDS011;27813;43.516;11.890;2023-10-19T04:02:51;12.63;;;6.10;;
42144;SDS011;27813;43.516;11.890;2023-10-19T04:06:57;10.65;;;5.80;;
42144;SDS011;27813;43.516;11.890;2023-10-19T04:11:01;13.82;;;5.72;;
42144;SDS011;27813;43.516;11.890;2023-10-19T04:15:12;8.13;;;5.55;;
42144;SDS011;27813;43.516;11.890;2023-10-19T04:19:20;11.02;;;5.55;;
42144;SDS011;27813;43.516;11.890;2023-10-19T04:23:24;9.85;;;5.65;;
42144;SDS011;27813;43.516;11.890;2023-10-19T04:27:31;8.13;;;5.47;;
42144;SDS011;27813;43.516;11.890;2023-10-19T04:31:40;9.15;;;6.22;;
42144;SDS011;27813;43.516;11.890;2023-10-19T04:35:55;10.95;;;5.25;;
42144;SDS011;27813;43.516;11.890;2023-10-19T04:39:59;13.15;;;5.63;;
42144;SDS011;27813;43.516;11.890;2023-10-19T04:44:04;8.55;;;5.60;;
42144;SDS011;27813;43.516;11.890;2023-10-19T04:48:12;11.63;;;6.20;;
42144;SDS011;27813;43.516;11.890;2023-10-19T04:52:16;7.65;;;5.10;;
42144;SDS011;27813;43.516;11.890;2023-10-19T04:56:21;8.82;;;5.78;;
42144;SDS011;27813;43.516;11.890;2023-10-19T05:00:29;12.85;;;6.57;;
42144;SDS011;27813;43.516;11.890;2023-10-19T05:04:34;9.85;;;6.07;;
42144;SDS011;27813;43.516;11.890;2023-10-19T05:08:39;12.93;;;6.47;;
42144;SDS011;27813;43.516;11.890;2023-10-19T05:12:43;10.98;;;6.90;;
42144;SDS011;27813;43.516;11.890;2023-10-19T05:16:50;12.50;;;6.50;;
42144;SDS011;27813;43.516;11.890;2023-10-19T05:20:55;13.50;;;6.10;;
42144;SDS011;27813;43.516;11.890;2023-10-19T05:25:00;12.93;;;5.78;;
42144;SDS011;27813;43.516;11.890;2023-10-19T05:29:06;12.45;;;5.72;;
42144;SDS011;27813;43.516;11.890;2023-10-19T05:33:10;12.57;;;6.38;;
42144;SDS011;27813;43.516;11.890;2023-10-19T05:37:18;10.85;;;6.18;;
42144;SDS011;27813;43.516;11.890;2023-10-19T05:41:25;12.43;;;6.10;;
42144;SDS011;27813;43.516;11.890;2023-10-19T05:45:30;14.55;;;6.43;;
42144;SDS011;27813;43.516;11.890;2023-10-19T05:49:37;13.32;;;6.03;;
42144;SDS011;27813;43.516;11.890;2023-10-19T05:53:47;12.73;;;6.80;;
42144;SDS011;27813;43.516;11.890;2023-10-19T05:57:55;12.60;;;6.45;;
42144;SDS011;27813;43.516;11.890;2023-10-19T06:02:02;11.65;;;6.75;;
42144;SDS011;27813;43.516;11.890;2023-10-19T06:06:09;12.45;;;6.25;;
42144;SDS011;27813;43.516;11.890;2023-10-19T06:10:16;17.50;;;6.85;;
42144;SDS011;27813;43.516;11.890;2023-10-19T06:14:24;14.98;;;6.70;;
42144;SDS011;27813;43.516;11.890;2023-10-19T06:18:46;11.85;;;5.78;;
42144;SDS011;27813;43.516;11.890;2023-10-19T06:22:56;13.02;;;6.82;;
42144;SDS011;27813;43.516;11.890;2023-10-19T06:27:07;12.20;;;6.50;;
42144;SDS011;27813;43.516;11.890;2023-10-19T06:31:12;11.45;;;6.35;;
42144;SDS011;27813;43.516;11.890;2023-10-19T06:35:20;12.68;;;6.80;;
42144;SDS011;27813;43.516;11.890;2023-10-19T06:39:25;11.40;;;7.25;;
42144;SDS011;27813;43.516;11.890;2023-10-19T06:43:32;12.20;;;6.53;;
42144;SDS011;27813;43.516;11.890;2023-10-19T06:47:36;13.45;;;7.47;;
42144;SDS011;27813;43.516;11.890;2023-10-19T06:51:42;15.80;;;7.22;;
42144;SDS011;27813;43.516;11.890;2023-10-19T06:55:46;15.23;;;7.45;;
42144;SDS011;27813;43.516;11.890;2023-10-19T06:59:52;12.13;;;7.68;;
42144;SDS011;27813;43.516;11.890;2023-10-19T07:03:57;17.88;;;8.18;;
42144;SDS011;27813;43.516;11.890;2023-10-19T07:08:02;13.80;;;7.53;;
42144;SDS011;27813;43.516;11.890;2023-10-19T07:12:11;11.35;;;6.45;;
42144;SDS011;27813;43.516;11.890;2023-10-19T07:16:15;17.25;;;6.53;;
42144;SDS011;27813;43.516;11.890;2023-10-19T07:20:21;13.48;;;6.68;;
42144;SDS011;27813;43.516;11.890;2023-10-19T07:24:31;16.30;;;6.72;;
42144;SDS011;27813;43.516;11.890;2023-10-19T07:28:40;11.52;;;6.60;;
42144;SDS011;27813;43.516;11.890;2023-10-19T07:32:46;12.48;;;7.22;;
42144;SDS011;27813;43.516;11.890;2023-10-19T07:36:56;13.60;;;7.07;;
42144;SDS011;27813;43.516;11.890;2023-10-19T07:41:04;19.60;;;7.50;;
42144;SDS011;27813;43.516;11.890;2023-10-19T07:45:09;16.20;;;7.95;;
42144;SDS011;27813;43.516;11.890;2023-10-19T07:49:19;16.60;;;10.38;;
42144;SDS011;27813;43.516;11.890;2023-10-19T07:53:26;24.38;;;11.95;;
42144;SDS011;27813;43.516;11.890;2023-10-19T07:57:31;25.10;;;12.10;;
42144;SDS011;27813;43.516;11.890;2023-10-19T08:01:44;16.73;;;11.18;;
42144;SDS011;27813;43.516;11.890;2023-10-19T08:05:50;17.38;;;10.57;;
42144;SDS011;27813;43.516;11.890;2023-10-19T08:09:55;16.05;;;9.70;;
42144;SDS011;27813;43.516;11.890;2023-10-19T08:14:04;14.07;;;8.00;;
42144;SDS011;27813;43.516;11.890;2023-10-19T08:18:10;15.90;;;9.43;;
42144;SDS011;27813;43.516;11.890;2023-10-19T08:22:23;16.00;;;9.10;;
42144;SDS011;27813;43.516;11.890;2023-10-19T08:26:33;21.05;;;9.98;;
42144;SDS011;27813;43.516;11.890;2023-10-19T08:30:47;13.45;;;8.43;;
42144;SDS011;27813;43.516;11.890;2023-10-19T08:35:05;14.48;;;8.55;;
42144;SDS011;27813;43.516;11.890;2023-10-19T08:39:10;14.80;;;7.07;;
42144;SDS011;27813;43.516;11.890;2023-10-19T08:43:18;18.40;;;8.65;;
42144;SDS011;27813;43.516;11.890;2023-10-19T08:47:25;11.85;;;7.13;;
42144;SDS011;27813;43.516;11.890;2023-10-19T08:51:31;9.20;;;6.45;;
42144;SDS011;27813;43.516;11.890;2023-10-19T08:55:36;10.68;;;5.55;;
42144;SDS011;27813;43.516;11.890;2023-10-19T08:59:51;10.38;;;6.03;;
42144;SDS011;27813;43.516;11.890;2023-10-19T09:03:59;9.02;;;5.80;;
42144;SDS011;27813;43.516;11.890;2023-10-19T09:08:06;12.63;;;6.32;;
42144;SDS011;27813;43.516;11.890;2023-10-19T09:12:13;10.40;;;5.40;;
42144;SDS011;27813;43.516;11.890;2023-10-19T09:16:20;8.65;;;4.60;;
42144;SDS011;27813;43.516;11.890;2023-10-19T09:20:25;11.13;;;4.72;;
42144;SDS011;27813;43.516;11.890;2023-10-19T09:24:37;10.70;;;4.32;;
42144;SDS011;27813;43.516;11.890;2023-10-19T09:28:41;9.02;;;4.93;;
42144;SDS011;27813;43.516;11.890;2023-10-19T09:32:48;8.75;;;3.72;;
42144;SDS011;27813;43.516;11.890;2023-10-19T09:36:53;12.95;;;3.95;;
42144;SDS011;27813;43.516;11.890;2023-10-19T09:41:01;6.40;;;3.70;;
42144;SDS011;27813;43.516;11.890;2023-10-19T09:45:07;8.80;;;3.97;;
42144;SDS011;27813;43.516;11.890;2023-10-19T09:49:13;5.90;;;3.13;;
42144;SDS011;27813;43.516;11.890;2023-10-19T09:53:18;10.55;;;3.60;;
42144;SDS011;27813;43.516;11.890;2023-10-19T09:58:11;9.02;;;3.17;;
42144;SDS011;27813;43.516;11.890;2023-10-19T10:02:06;7.35;;;3.03;;
42144;SDS011;27813;43.516;11.890;2023-10-19T10:06:30;11.32;;;3.25;;
42144;SDS011;27813;43.516;11.890;2023-10-19T10:10:57;8.63;;;3.22;;
42144;SDS011;27813;43.516;11.890;2023-10-19T10:15:02;7.35;;;3.05;;
42144;SDS011;27813;43.516;11.890;2023-10-19T10:19:13;10.10;;;2.97;;
42144;SDS011;27813;43.516;11.890;2023-10-19T10:23:30;12.18;;;5.57;;
42144;SDS011;27813;43.516;11.890;2023-10-19T10:27:53;6.68;;;3.15;;
42144;SDS011;27813;43.516;11.890;2023-10-19T10:32:02;11.90;;;3.38;;
42144;SDS011;27813;43.516;11.890;2023-10-19T10:36:15;11.80;;;2.60;;
42144;SDS011;27813;43.516;11.890;2023-10-19T10:40:23;5.15;;;2.55;;
42144;SDS011;27813;43.516;11.890;2023-10-19T10:44:35;7.78;;;2.38;;
42144;SDS011;27813;43.516;11.890;2023-10-19T10:48:51;6.35;;;2.60;;
42144;SDS011;27813;43.516;11.890;2023-10-19T10:52:57;8.15;;;2.42;;
42144;SDS011;27813;43.516;11.890;2023-10-19T10:57:07;5.50;;;2.28;;
42144;SDS011;27813;43.516;11.890;2023-10-19T11:01:14;7.97;;;2.58;;
42144;SDS011;27813;43.516;11.890;2023-10-19T11:05:20;6.25;;;2.78;;
42144;SDS011;27813;43.516;11.890;2023-10-19T11:09:42;6.47;;;3.70;;
42144;SDS011;27813;43.516;11.890;2023-10-19T11:13:48;6.93;;;2.97;;
42144;SDS011;27813;43.516;11.890;2023-10-19T11:17:56;9.80;;;2.95;;
42144;SDS011;27813;43.516;11.890;2023-10-19T11:22:02;7.20;;;3.15;;
42144;SDS011;27813;43.516;11.890;2023-10-19T11:26:12;4.30;;;2.15;;
42144;SDS011;27813;43.516;11.890;2023-10-19T11:30:27;8.85;;;3.15;;
42144;SDS011;27813;43.516;11.890;2023-10-19T11:34:39;6.03;;;2.72;;
42144;SDS011;27813;43.516;11.890;2023-10-19T11:38:48;6.50;;;2.35;;
42144;SDS011;27813;43.516;11.890;2023-10-19T11:42:56;6.60;;;2.63;;
42144;SDS011;27813;43.516;11.890;2023-10-19T11:47:03;8.05;;;2.33;;
42144;SDS011;27813;43.516;11.890;2023-10-19T11:51:10;8.05;;;2.80;;
42144;SDS011;27813;43.516;11.890;2023-10-19T11:55:15;8.07;;;3.03;;
42144;SDS011;27813;43.516;11.890;2023-10-19T11:59:20;5.88;;;2.28;;
42144;SDS011;27813;43.516;11.890;2023-10-19T12:03:28;6.63;;;2.42;;
42144;SDS011;27813;43.516;11.890;2023-10-19T12:07:33;5.75;;;2.35;;
42144;SDS011;27813;43.516;11.890;2023-10-19T12:11:40;7.05;;;2.00;;
42144;SDS011;27813;43.516;11.890;2023-10-19T12:15:49;7.07;;;2.97;;
42144;SDS011;27813;43.516;11.890;2023-10-19T12:19:58;6.40;;;2.22;;
42144;SDS011;27813;43.516;11.890;2023-10-19T12:24:04;7.22;;;2.55;;
42144;SDS011;27813;43.516;11.890;2023-10-19T12:28:09;6.43;;;1.67;;
42144;SDS011;27813;43.516;11.890;2023-10-19T12:32:17;10.02;;;2.58;;
42144;SDS011;27813;43.516;11.890;2023-10-19T12:36:24;6.35;;;1.70;;
42144;SDS011;27813;43.516;11.890;2023-10-19T12:40:32;4.43;;;1.48;;
42144;SDS011;27813;43.516;11.890;2023-10-19T12:44:40;7.57;;;2.20;;
42144;SDS011;27813;43.516;11.890;2023-10-19T12:48:51;10.05;;;2.28;;
42144;SDS011;27813;43.516;11.890;2023-10-19T12:52:57;7.85;;;2.25;;
42144;SDS011;27813;43.516;11.890;2023-10-19T12:57:02;6.07;;;1.58;;
42144;SDS011;27813;43.516;11.890;2023-10-19T13:01:10;5.00;;;1.38;;
42144;SDS011;27813;43.516;11.890;2023-10-19T13:05:22;5.82;;;1.80;;
42144;SDS011;27813;43.516;11.890;2023-10-19T13:09:29;5.97;;;1.77;;
42144;SDS011;27813;43.516;11.890;2023-10-19T13:13:39;6.10;;;1.70;;
42144;SDS011;27813;43.516;11.890;2023-10-19T13:17:47;5.05;;;2.03;;
42144;SDS011;27813;43.516;11.890;2023-10-19T13:21:52;6.18;;;1.83;;
42144;SDS011;27813;43.516;11.890;2023-10-19T13:25:58;8.48;;;1.50;;
42144;SDS011;27813;43.516;11.890;2023-10-19T13:30:19;5.70;;;1.48;;
42144;SDS011;27813;43.516;11.890;2023-10-19T13:34:25;4.47;;;1.83;;
42144;SDS011;27813;43.516;11.890;2023-10-19T13:38:33;7.10;;;1.60;;
42144;SDS011;27813;43.516;11.890;2023-10-19T13:42:38;7.05;;;1.50;;
42144;SDS011;27813;43.516;11.890;2023-10-19T13:47:04;2.50;;;1.25;;
42144;SDS011;27813;43.516;11.890;2023-10-19T13:51:15;6.47;;;1.58;;
42144;SDS011;27813;43.516;11.890;2023-10-19T13:55:24;9.30;;;1.60;;
42144;SDS011;27813;43.516;11.890;2023-10-19T13:59:29;6.97;;;1.77;;
42144;SDS011;27813;43.516;11.890;2023-10-19T14:03:37;4.82;;;1.58;;
42144;SDS011;27813;43.516;11.890;2023-10-19T14:07:42;4.43;;;1.63;;
42144;SDS011;27813;43.516;11.890;2023-10-19T14:11:49;6.70;;;1.60;;
42144;SDS011;27813;43.516;11.890;2023-10-19T14:15:53;8.90;;;1.55;;
42144;SDS011;27813;43.516;11.890;2023-10-19T14:20:02;5.53;;;1.77;;
42144;SDS011;27813;43.516;11.890;2023-10-19T14:24:09;6.10;;;1.60;;
42144;SDS011;27813;43.516;11.890;2023-10-19T14:28:15;5.28;;;2.22;;
42144;SDS011;27813;43.516;11.890;2023-10-19T14:32:22;4.30;;;1.65;;
42144;SDS011;27813;43.516;11.890;2023-10-19T14:36:30;8.15;;;2.22;;
42144;SDS011;27813;43.516;11.890;2023-10-19T14:40:35;3.78;;;1.70;;
42144;SDS011;27813;43.516;11.890;2023-10-19T14:44:47;8.02;;;2.03;;
42144;SDS011;27813;43.516;11.890;2023-10-19T14:48:52;8.80;;;2.28;;
42144;SDS011;27813;43.516;11.890;2023-10-19T14:52:57;7.57;;;1.70;;
42144;SDS011;27813;43.516;11.890;2023-10-19T14:57:03;4.43;;;1.65;;
42144;SDS011;27813;43.516;11.890;2023-10-19T15:01:12;6.65;;;2.10;;
42144;SDS011;27813;43.516;11.890;2023-10-19T15:05:27;5.72;;;2.08;;
42144;SDS011;27813;43.516;11.890;2023-10-19T15:09:32;5.65;;;2.17;;
42144;SDS011;27813;43.516;11.890;2023-10-19T15:13:37;7.05;;;3.20;;
42144;SDS011;27813;43.516;11.890;2023-10-19T15:17:41;4.85;;;1.60;;
42144;SDS011;27813;43.516;11.890;2023-10-19T15:21:48;8.23;;;2.08;;
42144;SDS011;27813;43.516;11.890;2023-10-19T15:25:52;6.38;;;1.92;;
42144;SDS011;27813;43.516;11.890;2023-10-19T15:29:58;7.35;;;2.00;;
42144;SDS011;27813;43.516;11.890;2023-10-19T15:34:04;10.27;;;2.80;;
42144;SDS011;27813;43.516;11.890;2023-10-19T15:38:10;7.43;;;2.88;;
42144;SDS011;27813;43.516;11.890;2023-10-19T15:42:15;8.13;;;2.67;;
42144;SDS011;27813;43.516;11.890;2023-10-19T15:46:24;7.32;;;1.73;;
42144;SDS011;27813;43.516;11.890;2023-10-19T15:50:31;10.30;;;2.63;;
42144;SDS011;27813;43.516;11.890;2023-10-19T15:54:38;8.27;;;2.13;;
42144;SDS011;27813;43.516;11.890;2023-10-19T15:58:43;9.75;;;2.55;;
42144;SDS011;27813;43.516;11.890;2023-10-19T16:02:49;11.07;;;2.33;;
42144;SDS011;27813;43.516;11.890;2023-10-19T16:06:57;6.18;;;2.13;;
42144;SDS011;27813;43.516;11.890;2023-10-19T16:11:02;8.57;;;1.90;;
42144;SDS011;27813;43.516;11.890;2023-10-19T16:15:09;8.95;;;2.50;;
42144;SDS011;27813;43.516;11.890;2023-10-19T16:19:14;6.95;;;2.00;;
42144;SDS011;27813;43.516;11.890;2023-10-19T16:23:18;4.95;;;1.83;;
42144;SDS011;27813;43.516;11.890;2023-10-19T16:27:23;7.70;;;2.22;;
42144;SDS011;27813;43.516;11.890;2023-10-19T16:31:34;9.35;;;1.95;;
42144;SDS011;27813;43.516;11.890;2023-10-19T16:35:40;8.23;;;2.03;;
42144;SDS011;27813;43.516;11.890;2023-10-19T16:39:44;10.90;;;4.05;;
42144;SDS011;27813;43.516;11.890;2023-10-19T16:43:49;8.30;;;2.80;;
42144;SDS011;27813;43.516;11.890;2023-10-19T16:47:54;5.30;;;1.85;;
42144;SDS011;27813;43.516;11.890;2023-10-19T16:52:02;5.88;;;1.83;;
42144;SDS011;27813;43.516;11.890;2023-10-19T16:56:07;8.35;;;2.28;;
42144;SDS011;27813;43.516;11.890;2023-10-19T17:00:13;5.13;;;2.40;;
42144;SDS011;27813;43.516;11.890;2023-10-19T17:04:19;4.88;;;2.28;;
42144;SDS011;27813;43.516;11.890;2023-10-19T17:08:24;11.05;;;2.30;;
42144;SDS011;27813;43.516;11.890;2023-10-19T17:12:30;3.97;;;1.58;;
42144;SDS011;27813;43.516;11.890;2023-10-19T17:16:36;6.15;;;2.10;;
42144;SDS011;27813;43.516;11.890;2023-10-19T17:20:42;7.93;;;2.83;;
42144;SDS011;27813;43.516;11.890;2023-10-19T17:24:48;8.95;;;2.83;;
42144;SDS011;27813;43.516;11.890;2023-10-19T17:28:52;8.00;;;2.33;;
42144;SDS011;27813;43.516;11.890;2023-10-19T17:32:59;6.65;;;2.13;;
42144;SDS011;27813;43.516;11.890;2023-10-19T17:37:14;5.38;;;2.10;;
42144;SDS011;27813;43.516;11.890;2023-10-19T17:41:19;11.20;;;2.67;;
42144;SDS011;27813;43.516;11.890;2023-10-19T17:45:24;7.90;;;2.55;;
42144;SDS011;27813;43.516;11.890;2023-10-19T17:49:29;6.43;;;2.20;;
42144;SDS011;27813;43.516;11.890;2023-10-19T17:53:35;9.38;;;3.35;;
42144;SDS011;27813;43.516;11.890;2023-10-19T17:57:43;8.02;;;2.55;;
42144;SDS011;27813;43.516;11.890;2023-10-19T18:01:54;5.45;;;2.60;;
42144;SDS011;27813;43.516;11.890;2023-10-19T18:05:59;6.60;;;2.15;;
42144;SDS011;27813;43.516;11.890;2023-10-19T18:10:05;7.97;;;2.63;;
42144;SDS011;27813;43.516;11.890;2023-10-19T18:14:13;6.15;;;2.40;;
42144;SDS011;27813;43.516;11.890;2023-10-19T18:18:18;6.18;;;2.38;;
42144;SDS011;27813;43.516;11.890;2023-10-19T18:22:22;6.35;;;2.53;;
42144;SDS011;27813;43.516;11.890;2023-10-19T18:26:26;8.30;;;2.63;;
42144;SDS011;27813;43.516;11.890;2023-10-19T18:30:31;7.57;;;2.35;;
42144;SDS011;27813;43.516;11.890;2023-10-19T18:34:35;7.47;;;2.53;;
42144;SDS011;27813;43.516;11.890;2023-10-19T18:38:40;8.73;;;2.40;;
42144;SDS011;27813;43.516;11.890;2023-10-19T18:42:45;8.73;;;3.03;;
42144;SDS011;27813;43.516;11.890;2023-10-19T18:46:50;11.70;;;3.33;;
42144;SDS011;27813;43.516;11.890;2023-10-19T18:50:57;9.23;;;3.60;;
42144;SDS011;27813;43.516;11.890;2023-10-19T18:55:04;9.88;;;3.53;;
42144;SDS011;27813;43.516;11.890;2023-10-19T18:59:09;9.23;;;3.10;;
42144;SDS011;27813;43.516;11.890;2023-10-19T19:03:14;9.90;;;2.88;;
42144;SDS011;27813;43.516;11.890;2023-10-19T19:07:21;9.27;;;3.20;;
42144;SDS011;27813;43.516;11.890;2023-10-19T19:11:27;9.88;;;3.10;;
42144;SDS011;27813;43.516;11.890;2023-10-19T19:15:33;11.70;;;2.85;;
42144;SDS011;27813;43.516;11.890;2023-10-19T19:23:50;11.68;;;3.17;;
42144;SDS011;27813;43.516;11.890;2023-10-19T19:27:55;14.32;;;3.53;;
42144;SDS011;27813;43.516;11.890;2023-10-19T19:31:59;18.27;;;3.92;;
42144;SDS011;27813;43.516;11.890;2023-10-19T19:36:10;9.18;;;2.75;;
42144;SDS011;27813;43.516;11.890;2023-10-19T19:40:16;8.82;;;3.15;;
42144;SDS011;27813;43.516;11.890;2023-10-19T19:44:27;8.50;;;3.25;;
42144;SDS011;27813;43.516;11.890;2023-10-19T19:48:33;8.30;;;3.80;;
42144;SDS011;27813;43.516;11.890;2023-10-19T19:52:39;10.07;;;3.15;;
42144;SDS011;27813;43.516;11.890;2023-10-19T19:56:48;12.88;;;4.10;;
42144;SDS011;27813;43.516;11.890;2023-10-19T20:00:53;11.73;;;3.88;;
42144;SDS011;27813;43.516;11.890;2023-10-19T20:04:59;9.93;;;3.10;;
42144;SDS011;27813;43.516;11.890;2023-10-19T20:09:05;11.45;;;3.33;;
42144;SDS011;27813;43.516;11.890;2023-10-19T20:13:17;10.52;;;3.78;;
42144;SDS011;27813;43.516;11.890;2023-10-19T20:17:23;14.13;;;4.07;;
42144;SDS011;27813;43.516;11.890;2023-10-19T20:21:30;15.80;;;3.25;;
42144;SDS011;27813;43.516;11.890;2023-10-19T20:25:36;13.80;;;3.92;;
42144;SDS011;27813;43.516;11.890;2023-10-19T20:29:44;10.32;;;2.53;;
42144;SDS011;27813;43.516;11.890;2023-10-19T20:33:48;7.85;;;3.13;;
42144;SDS011;27813;43.516;11.890;2023-10-19T20:37:54;11.07;;;3.28;;
42144;SDS011;27813;43.516;11.890;2023-10-19T20:42:00;10.02;;;3.22;;
42144;SDS011;27813;43.516;11.890;2023-10-19T20:46:05;10.50;;;3.00;;
42144;SDS011;27813;43.516;11.890;2023-10-19T20:50:14;9.23;;;4.00;;
42144;SDS011;27813;43.516;11.890;2023-10-19T20:54:21;11.30;;;2.70;;
42144;SDS011;27813;43.516;11.890;2023-10-19T20:58:25;6.38;;;2.72;;
42144;SDS011;27813;43.516;11.890;2023-10-19T21:02:31;8.93;;;2.95;;
42144;SDS011;27813;43.516;11.890;2023-10-19T21:06:41;8.13;;;2.58;;
42144;SDS011;27813;43.516;11.890;2023-10-19T21:10:46;11.20;;;2.83;;
42144;SDS011;27813;43.516;11.890;2023-10-19T21:14:51;7.80;;;3.50;;
42144;SDS011;27813;43.516;11.890;2023-10-19T21:18:57;9.90;;;2.72;;
42144;SDS011;27813;43.516;11.890;2023-10-19T21:23:04;7.65;;;2.47;;
42144;SDS011;27813;43.516;11.890;2023-10-19T21:27:14;10.98;;;3.33;;
42144;SDS011;27813;43.516;11.890;2023-10-19T21:31:19;9.75;;;4.13;;
42144;SDS011;27813;43.516;11.890;2023-10-19T21:35:25;9.57;;;2.90;;
42144;SDS011;27813;43.516;11.890;2023-10-19T21:39:30;10.40;;;3.00;;
42144;SDS011;27813;43.516;11.890;2023-10-19T21:43:37;11.52;;;3.00;;
42144;SDS011;27813;43.516;11.890;2023-10-19T21:47:44;7.63;;;2.78;;
42144;SDS011;27813;43.516;11.890;2023-10-19T21:51:52;19.92;;;4.10;;
42144;SDS011;27813;43.516;11.890;2023-10-19T21:55:56;9.65;;;4.05;;
42144;SDS011;27813;43.516;11.890;2023-10-19T22:00:03;10.95;;;2.58;;
42144;SDS011;27813;43.516;11.890;2023-10-19T22:04:19;12.65;;;3.38;;
42144;SDS011;27813;43.516;11.890;2023-10-19T22:08:26;9.80;;;2.92;;
42144;SDS011;27813;43.516;11.890;2023-10-19T22:12:33;8.43;;;2.75;;
42144;SDS011;27813;43.516;11.890;2023-10-19T22:16:41;12.73;;;3.33;;
42144;SDS011;27813;43.516;11.890;2023-10-19T22:20:46;12.45;;;2.90;;
42144;SDS011;27813;43.516;11.890;2023-10-19T22:24:57;12.15;;;3.40;;
42144;SDS011;27813;43.516;11.890;2023-10-19T22:29:03;10.98;;;3.28;;
42144;SDS011;27813;43.516;11.890;2023-10-19T22:33:11;10.82;;;3.08;;
42144;SDS011;27813;43.516;11.890;2023-10-19T22:37:16;9.32;;;2.72;;
42144;SDS011;27813;43.516;11.890;2023-10-19T22:41:21;11.27;;;3.00;;
42144;SDS011;27813;43.516;11.890;2023-10-19T22:45:28;9.05;;;3.03;;
42144;SDS011;27813;43.516;11.890;2023-10-19T22:49:34;12.00;;;3.60;;
42144;SDS011;27813;43.516;11.890;2023-10-19T22:53:39;8.10;;;2.72;;
42144;SDS011;27813;43.516;11.890;2023-10-19T22:57:44;8.07;;;3.05;;
42144;SDS011;27813;43.516;11.890;2023-10-19T23:01:57;12.68;;;3.72;;
42144;SDS011;27813;43.516;11.890;2023-10-19T23:06:03;8.30;;;3.08;;
42144;SDS011;27813;43.516;11.890;2023-10-19T23:10:08;9.80;;;3.50;;
42144;SDS011;27813;43.516;11.890;2023-10-19T23:14:16;9.10;;;3.53;;
42144;SDS011;27813;43.516;11.890;2023-10-19T23:18:22;9.40;;;3.00;;
42144;SDS011;27813;43.516;11.890;2023-10-19T23:22:26;9.60;;;3.20;;
42144;SDS011;27813;43.516;11.890;2023-10-19T23:26:32;11.23;;;4.25;;
42144;SDS011;27813;43.516;11.890;2023-10-19T23:30:36;12.65;;;3.58;;
42144;SDS011;27813;43.516;11.890;2023-10-19T23:34:44;14.20;;;3.53;;
42144;SDS011;27813;43.516;11.890;2023-10-19T23:38:51;14.30;;;3.30;;
42144;SDS011;27813;43.516;11.890;2023-10-19T23:42:56;11.15;;;3.30;;
42144;SDS011;27813;43.516;11.890;2023-10-19T23:47:00;11.52;;;3.80;;
42144;SDS011;27813;43.516;11.890;2023-10-19T23:51:05;15.13;;;5.30;;
42144;SDS011;27813;43.516;11.890;2023-10-19T23:55:09;9.95;;;3.05;;
42144;SDS011;27813;43.516;11.890;2023-10-19T23:59:15;10.75;;;3.13;;
